Time;durP1;ratioP1;P1;durP2;ratioP2;P2;SDS_P1;SDS_P2;PMS_P1;PMS_P2;Temp;Humidity;BMP_temperature;BMP_pressure;BME280_temperature;BME280_humidity;BME280_pressure;Samples;Min_cycle;Max_cycle;Signal;HPM_P1;HPM_P2
2022/02/27 00:00:14;;;;;;;2.80;1.95;;;;;;;4.13;50.45;101012.97;4877756;29;20423;-81
2022/02/27 00:02:41;;;;;;;4.78;1.67;;;;;;;3.92;50.07;100984.75;4878662;29;20520;-82
2022/02/27 00:05:08;;;;;;;2.35;1.38;;;;;;;4.15;50.34;101019.06;4892361;29;20041;-81
2022/02/27 00:07:34;;;;;;;2.00;1.20;;;;;;;4.05;49.66;101004.09;4858000;29;20052;-81
2022/02/27 00:10:03;;;;;;;5.97;1.90;;;;;;;4.06;50.28;101003.28;4873806;29;20052;-80
2022/02/27 00:12:30;;;;;;;3.28;1.40;;;;;;;4.05;49.56;101009.25;4892731;29;20649;-79
2022/02/27 00:14:57;;;;;;;2.90;1.17;;;;;;;3.92;49.80;100980.44;4876149;29;20052;-79
2022/02/27 00:17:23;;;;;;;4.05;1.60;;;;;;;4.09;49.57;101017.97;4873798;29;20144;-80
2022/02/27 00:19:49;;;;;;;3.17;1.25;;;;;;;3.89;50.00;100989.78;4891170;29;20127;-78
2022/02/27 00:22:15;;;;;;;1.65;1.00;;;;;;;4.07;49.82;101023.94;4874350;29;20490;-79
2022/02/27 00:24:42;;;;;;;3.72;1.25;;;;;;;4.02;49.52;101019.44;4867257;29;20045;-79
2022/02/27 00:27:08;;;;;;;3.83;1.38;;;;;;;4.04;49.40;101022.97;4892425;29;20063;-80
2022/02/27 00:29:34;;;;;;;3.70;1.40;;;;;;;3.92;49.24;101006.22;4876883;29;20839;-78
2022/02/27 00:32:01;;;;;;;3.53;1.23;;;;;;;3.96;48.89;101017.53;4893953;29;20059;-81
2022/02/27 00:34:27;;;;;;;3.17;1.30;;;;;;;3.92;49.14;101006.22;4891563;29;20135;-78
2022/02/27 00:36:53;;;;;;;1.30;1.08;;;;;;;3.85;49.58;101001.66;4879417;29;20181;-78
2022/02/27 00:39:20;;;;;;;3.33;1.27;;;;;;;4.05;48.68;101029.88;4900048;29;20418;-78
2022/02/27 00:41:46;;;;;;;3.55;1.38;;;;;;;3.93;48.76;101017.41;4905890;29;20048;-79
2022/02/27 00:44:12;;;;;;;3.10;1.10;;;;;;;3.84;48.51;101023.09;4897718;29;20052;-79
2022/02/27 00:46:39;;;;;;;2.00;1.17;;;;;;;3.77;48.45;101014.22;4892455;29;20024;-80
2022/02/27 00:49:05;;;;;;;1.77;1.17;;;;;;;3.70;48.99;100991.66;4885854;29;20048;-80
2022/02/27 00:51:38;;;;;;;2.45;1.20;;;;;;;3.86;48.32;101015.41;4890559;29;20083;-80
2022/02/27 00:54:04;;;;;;;3.13;1.10;;;;;;;3.70;48.24;101001.06;4885621;29;20077;-81
2022/02/27 00:56:30;;;;;;;2.05;1.08;;;;;;;3.65;48.60;101011.19;4877024;29;20512;-80
2022/02/27 00:58:56;;;;;;;2.67;1.10;;;;;;;3.70;48.73;101017.41;4874918;29;20047;-80
2022/02/27 01:01:22;;;;;;;1.85;1.13;;;;;;;3.70;48.46;101024.22;4883976;29;20118;-79
2022/02/27 01:03:52;;;;;;;3.97;1.48;;;;;;;3.52;48.73;100994.41;4903788;29;20037;-80
2022/02/27 01:06:18;;;;;;;5.72;1.10;;;;;;;3.67;48.84;101034.41;4886069;29;20112;-77
2022/02/27 01:08:44;;;;;;;2.60;1.20;;;;;;;3.84;49.04;101054.00;4871469;29;20555;-80
2022/02/27 01:11:11;;;;;;;1.08;0.93;;;;;;;3.88;48.86;101062.69;4894307;29;20096;-78
2022/02/27 01:13:38;;;;;;;1.88;0.90;;;;;;;3.57;48.19;100995.47;4878314;29;20064;-80
2022/02/27 01:16:06;;;;;;;1.92;1.08;;;;;;;3.82;48.54;101047.00;4888302;29;20060;-80
2022/02/27 01:18:35;;;;;;;4.18;1.35;;;;;;;3.65;48.19;101028.31;4864000;29;20039;-80
2022/02/27 01:21:01;;;;;;;2.42;1.38;;;;;;;3.55;48.13;101037.38;4876639;29;20060;-82
2022/02/27 01:23:28;;;;;;;3.78;1.67;;;;;;;3.54;48.40;101044.25;4895835;29;20135;-78
2022/02/27 01:25:54;;;;;;;5.50;1.98;;;;;;;3.44;47.99;101031.81;4850312;29;20199;-80
2022/02/27 01:28:21;;;;;;;3.90;1.60;;;;;;;3.37;48.52;101024.69;4880735;29;20079;-80
2022/02/27 01:30:47;;;;;;;3.40;1.60;;;;;;;3.37;48.69;101017.81;4849151;29;20052;-79
2022/02/27 01:33:15;;;;;;;3.25;1.27;;;;;;;3.52;48.20;101060.44;4889333;29;20044;-79
2022/02/27 01:35:41;;;;;;;4.40;1.65;;;;;;;3.35;48.33;101034.03;4893982;29;20048;-80
2022/02/27 01:38:07;;;;;;;3.47;1.20;;;;;;;3.48;48.67;101059.44;4888875;29;20100;-79
2022/02/27 01:40:33;;;;;;;2.28;1.10;;;;;;;3.60;48.54;101079.63;4879638;29;20028;-80
2022/02/27 01:43:01;;;;;;;3.10;1.20;;;;;;;3.67;48.84;101084.22;4898927;29;20037;-80
2022/02/27 01:45:27;;;;;;;1.65;0.95;;;;;;;3.60;48.71;101089.94;4893833;29;20032;-80
2022/02/27 01:47:55;;;;;;;1.98;1.10;;;;;;;3.41;48.71;101054.88;4899497;29;20040;-81
2022/02/27 01:50:21;;;;;;;2.67;1.30;;;;;;;3.28;49.01;101046.63;4899342;29;20040;-81
2022/02/27 01:52:47;;;;;;;2.00;1.00;;;;;;;3.32;48.91;101050.19;4886076;29;20140;-79
2022/02/27 01:55:14;;;;;;;1.42;0.95;;;;;;;3.56;49.35;101096.66;4868640;29;20131;-79
2022/02/27 01:57:41;;;;;;;4.18;1.27;;;;;;;3.17;48.93;101048.78;4890864;29;20099;-80
2022/02/27 02:00:08;;;;;;;5.35;1.50;;;;;;;3.40;48.99;101109.72;4893128;29;20040;-80
2022/02/27 02:02:39;;;;;;;;;;;;;;;3.37;49.08;101119.88;4876305;29;20047;-78
2022/02/27 02:05:05;;;;;;;3.47;1.00;;;;;;;3.24;49.04;101106.50;4890478;29;19927;-81
2022/02/27 02:07:32;;;;;;;2.72;1.27;;;;;;;3.20;50.01;101108.88;4856003;29;20406;-81
2022/02/27 02:09:58;;;;;;;3.75;1.20;;;;;;;3.07;49.25;101092.06;4890683;29;20482;-82
2022/02/27 02:12:25;;;;;;;4.05;1.27;;;;;;;3.04;49.51;101087.66;4891056;29;20044;-80
2022/02/27 02:14:52;;;;;;;2.78;1.20;;;;;;;2.92;49.57;101088.03;4883547;29;20064;-80
2022/02/27 02:17:18;;;;;;;2.92;1.13;;;;;;;3.06;49.77;101121.16;4875316;29;20087;-82
2022/02/27 02:19:44;;;;;;;2.75;1.30;;;;;;;3.05;49.66;101139.97;4890303;29;20534;-80
2022/02/27 02:22:13;;;;;;;1.60;1.00;;;;;;;3.07;50.44;101149.53;4873926;29;20057;-79
2022/02/27 02:24:40;;;;;;;2.50;1.25;;;;;;;2.80;49.87;101092.63;4863381;29;20036;-78
2022/02/27 02:27:06;;;;;;;3.80;1.13;;;;;;;3.01;50.45;101129.53;4874608;29;20049;-80
2022/02/27 02:29:32;;;;;;;2.13;1.10;;;;;;;2.99;50.11;101125.16;4873277;29;20044;-79
2022/02/27 02:32:03;;;;;;;4.53;1.13;;;;;;;2.48;50.73;101043.28;4888490;29;20510;-79
2022/02/27 02:34:29;;;;;;;3.78;1.40;;;;;;;2.76;50.38;101104.47;4858287;29;20044;-79
2022/02/27 02:36:56;;;;;;;2.97;1.30;;;;;;;2.89;50.75;101112.69;4873305;29;20450;-78
2022/02/27 02:39:27;;;;;;;2.90;1.23;;;;;;;2.87;51.01;101112.66;4878819;29;20103;-80
2022/02/27 02:41:54;;;;;;;6.07;2.60;;;;;;;2.65;50.49;101080.88;4874099;29;20052;-81
2022/02/27 02:44:26;;;;;;;3.00;1.10;;;;;;;3.12;50.56;101162.59;4890235;29;20422;-80
2022/02/27 02:46:53;;;;;;;2.35;1.15;;;;;;;2.66;50.30;101092.91;4890744;29;20352;-79
2022/02/27 02:49:18;;;;;;;2.33;1.02;;;;;;;2.73;50.98;101118.88;4889875;29;20122;-81
2022/02/27 02:51:50;;;;;;;4.88;1.20;;;;;;;2.77;51.18;101133.59;4876158;29;20045;-81
2022/02/27 02:54:16;;;;;;;2.85;1.50;;;;;;;2.89;51.28;101153.84;4874551;29;20383;-83
2022/02/27 02:56:42;;;;;;;2.95;1.30;;;;;;;2.57;51.07;101105.34;4889569;29;20793;-81
2022/02/27 02:59:09;;;;;;;2.17;1.40;;;;;;;2.94;51.38;101193.50;4889475;29;20049;-79
2022/02/27 03:01:35;;;;;;;3.45;1.42;;;;;;;2.40;50.85;101127.72;4874494;29;20204;-79
2022/02/27 03:04:03;;;;;;;3.58;1.38;;;;;;;2.67;51.63;101174.34;4891016;29;20044;-79
2022/02/27 03:06:30;;;;;;;2.65;1.30;;;;;;;2.79;51.60;101196.25;4889126;29;20047;-82
2022/02/27 03:08:56;;;;;;;2.95;1.75;;;;;;;2.58;51.82;101162.78;4871634;29;20506;-82
2022/02/27 03:11:22;;;;;;;2.67;1.60;;;;;;;2.75;51.69;101204.69;4875471;29;20071;-80
2022/02/27 03:13:50;;;;;;;4.50;1.75;;;;;;;2.75;52.40;101202.09;4897077;29;20036;-80
2022/02/27 03:16:18;;;;;;;3.97;1.40;;;;;;;2.69;52.27;101194.97;4875265;29;20127;-81
2022/02/27 03:18:44;;;;;;;2.53;1.40;;;;;;;2.63;52.52;101208.44;4874767;29;20518;-79
2022/02/27 03:21:11;;;;;;;2.47;1.33;;;;;;;2.65;52.24;101206.81;4887070;29;20052;-80
2022/02/27 03:23:37;;;;;;;4.85;1.50;;;;;;;2.61;52.60;101209.19;4846441;29;20070;-79
2022/02/27 03:26:04;;;;;;;2.90;1.58;;;;;;;2.74;52.83;101218.34;4888936;29;20056;-78
2022/02/27 03:28:30;;;;;;;2.17;1.35;;;;;;;2.71;52.74;101222.53;4876951;29;20147;-79
2022/02/27 03:30:56;;;;;;;3.75;1.60;;;;;;;2.44;52.36;101187.84;4874004;29;20962;-81
2022/02/27 03:33:22;;;;;;;5.63;1.95;;;;;;;2.47;52.99;101199.13;4892010;29;20104;-81
2022/02/27 03:35:53;;;;;;;3.35;1.70;;;;;;;2.63;52.86;101231.56;4892694;29;20044;-83
2022/02/27 03:38:24;;;;;;;2.55;1.70;;;;;;;2.54;52.90;101214.03;4913513;29;20088;-80
2022/02/27 03:40:50;;;;;;;4.90;1.63;;;;;;;2.75;53.35;101253.53;4899817;29;20033;-79
2022/02/27 03:43:22;;;;;;;2.92;1.75;;;;;;;2.52;53.17;101228.50;4876324;29;20178;-80
2022/02/27 03:45:49;;;;;;;5.45;1.70;;;;;;;2.67;53.01;101260.84;4864999;29;20060;-81
2022/02/27 03:48:15;;;;;;;3.63;1.70;;;;;;;2.31;53.31;101218.09;4903810;29;20052;-78
2022/02/27 03:50:41;;;;;;;1.98;1.50;;;;;;;2.29;53.24;101212.00;4903659;29;20057;-80
2022/02/27 03:53:07;;;;;;;4.15;1.48;;;;;;;2.63;53.62;101275.25;4883917;29;20069;-80
2022/02/27 03:55:33;;;;;;;4.30;1.40;;;;;;;2.60;53.70;101280.25;4858189;29;20067;-78
2022/02/27 03:57:59;;;;;;;3.53;1.42;;;;;;;2.56;53.25;101283.47;4891251;29;20055;-79
2022/02/27 04:00:25;;;;;;;4.65;1.90;;;;;;;2.05;52.94;101220.28;4875193;29;20077;-79
2022/02/27 04:02:51;;;;;;;3.90;1.40;;;;;;;2.03;52.95;101208.16;4878519;29;20075;-80
2022/02/27 04:05:18;;;;;;;2.72;1.40;;;;;;;2.45;53.07;101303.53;4909598;29;20055;-80
2022/02/27 04:07:45;;;;;;;2.33;1.45;;;;;;;1.95;52.62;101226.66;4879824;29;20097;-80
2022/02/27 04:10:12;;;;;;;2.92;1.70;;;;;;;2.01;52.41;101256.91;4891264;29;20055;-80
2022/02/27 04:12:38;;;;;;;2.55;1.60;;;;;;;2.01;52.70;101287.72;4871062;29;20076;-80
2022/02/27 04:15:05;;;;;;;3.25;1.80;;;;;;;1.80;53.05;101256.69;4887844;29;20067;-78
2022/02/27 04:17:32;;;;;;;3.88;1.60;;;;;;;2.04;53.11;101308.41;4894705;29;20052;-78
2022/02/27 04:19:58;;;;;;;3.22;1.58;;;;;;;2.15;53.11;101323.47;4898162;29;20041;-81
2022/02/27 04:22:25;;;;;;;4.47;1.88;;;;;;;1.91;53.00;101293.19;4895565;29;20055;-80
2022/02/27 04:24:52;;;;;;;3.92;1.80;;;;;;;2.07;52.99;101330.78;4887481;29;20063;-77
2022/02/27 04:27:18;;;;;;;4.65;2.00;;;;;;;2.20;53.14;101333.19;4887562;29;20057;-79
2022/02/27 04:29:45;;;;;;;2.05;1.48;;;;;;;1.62;52.93;101237.00;4904974;29;20037;-80
2022/02/27 04:32:11;;;;;;;1.88;1.38;;;;;;;1.90;53.04;101291.41;4873226;29;20060;-82
2022/02/27 04:34:37;;;;;;;2.72;1.40;;;;;;;2.10;52.73;101323.25;4895929;29;20391;-80
2022/02/27 04:37:04;;;;;;;3.50;1.50;;;;;;;2.06;52.77;101336.72;4867270;29;20049;-80
2022/02/27 04:39:30;;;;;;;2.85;1.50;;;;;;;2.07;52.72;101341.06;4890986;29;20103;-80
2022/02/27 04:41:56;;;;;;;1.60;1.30;;;;;;;1.79;52.67;101302.03;4853086;29;20044;-80
2022/02/27 04:44:22;;;;;;;2.22;1.30;;;;;;;1.83;53.07;101312.47;4892395;29;20071;-81
2022/02/27 04:46:48;;;;;;;1.98;1.50;;;;;;;1.73;53.15;101296.59;4886886;29;20499;-80
2022/02/27 04:49:14;;;;;;;2.70;1.30;;;;;;;2.17;53.17;101365.50;4851478;29;20045;-80
2022/02/27 04:51:40;;;;;;;2.92;1.38;;;;;;;2.16;52.70;101374.03;4876598;29;20131;-79
2022/02/27 04:54:06;;;;;;;4.50;1.80;;;;;;;1.73;52.83;101342.78;4876062;29;20048;-79
2022/02/27 04:56:32;;;;;;;4.75;1.52;;;;;;;2.03;53.52;101373.41;4871449;29;20040;-81
2022/02/27 04:58:58;;;;;;;3.25;1.65;;;;;;;2.07;53.02;101380.47;4873686;29;20041;-80
2022/02/27 05:01:24;;;;;;;3.40;1.40;;;;;;;2.01;52.78;101381.81;4888483;29;20048;-79
2022/02/27 05:03:50;;;;;;;3.13;1.30;;;;;;;1.92;52.98;101370.28;4885279;29;20495;-80
2022/02/27 05:06:18;;;;;;;3.50;1.23;;;;;;;2.07;53.08;101400.13;4869696;29;20055;-81
2022/02/27 05:08:45;;;;;;;1.38;1.08;;;;;;;1.92;52.71;101400.22;4870737;29;20136;-80
2022/02/27 05:11:13;;;;;;;1.83;1.02;;;;;;;1.70;52.44;101387.94;4890913;29;20167;-81
2022/02/27 05:13:39;;;;;;;1.98;1.10;;;;;;;1.62;52.65;101378.16;4869749;29;20067;-80
2022/02/27 05:16:05;;;;;;;1.30;0.90;;;;;;;1.43;52.33;101345.53;4871128;29;20091;-80
2022/02/27 05:18:31;;;;;;;2.13;1.10;;;;;;;1.66;52.21;101376.63;4886239;29;20044;-82
2022/02/27 05:20:57;;;;;;;3.17;1.05;;;;;;;1.79;52.27;101407.28;4890835;29;20071;-81
2022/02/27 05:23:23;;;;;;;5.18;1.20;;;;;;;1.63;52.78;101392.75;4886670;29;20056;-82
2022/02/27 05:25:57;;;;;;;2.42;0.90;;;;;;;1.56;52.11;101385.50;4856535;29;20056;-79
2022/02/27 05:28:23;;;;;;;3.17;1.35;;;;;;;1.39;52.27;101366.69;4872840;29;20055;-81
2022/02/27 05:31:09;;;;;;;5.57;0.70;;;;;;;1.42;51.54;101384.81;4873946;29;20063;-81
2022/02/27 05:33:35;;;;;;;2.47;1.13;;;;;;;1.31;51.91;101378.19;4886592;29;20069;-80
2022/02/27 05:36:02;;;;;;;1.00;0.80;;;;;;;1.47;51.54;101408.13;4871970;29;20056;-81
2022/02/27 05:38:28;;;;;;;1.58;0.90;;;;;;;1.47;52.01;101405.56;4891292;29;20048;-80
2022/02/27 05:40:54;;;;;;;3.28;1.02;;;;;;;1.50;51.29;101421.13;4860607;29;20884;-79
2022/02/27 05:43:20;;;;;;;2.67;1.00;;;;;;;1.70;51.81;101440.16;4890165;29;20063;-81
2022/02/27 05:45:47;;;;;;;1.13;0.90;;;;;;;1.83;51.33;101445.97;4892377;29;20040;-79
2022/02/27 05:48:13;;;;;;;1.75;1.17;;;;;;;1.74;51.28;101431.81;4880344;29;20044;-81
2022/02/27 05:50:39;;;;;;;0.93;0.70;;;;;;;1.86;50.84;101458.97;4899598;29;20075;-81
2022/02/27 05:53:05;;;;;;;1.33;0.90;;;;;;;1.39;51.09;101365.78;4882252;29;20069;-79
2022/02/27 05:55:31;;;;;;;1.60;0.90;;;;;;;1.86;50.37;101462.41;4897066;29;20048;-80
2022/02/27 05:57:57;;;;;;;3.55;0.70;;;;;;;1.84;51.31;101452.84;4893857;29;20048;-79
2022/02/27 06:00:24;;;;;;;3.03;0.70;;;;;;;1.94;50.67;101465.38;4873167;29;20087;-80
2022/02/27 06:02:50;;;;;;;1.38;0.60;;;;;;;1.91;50.55;101457.50;4890478;29;20047;-80
2022/02/27 06:05:25;;;;;;;1.58;0.70;;;;;;;1.96;50.43;101461.19;4875377;29;20083;-80
2022/02/27 06:07:51;;;;;;;1.35;0.52;;;;;;;2.00;49.96;101480.19;4891822;29;20041;-79
2022/02/27 06:10:20;;;;;;;1.40;0.90;;;;;;;2.09;50.22;101485.84;4889844;29;20416;-79
2022/02/27 06:12:48;;;;;;;0.85;0.70;;;;;;;1.92;49.41;101444.75;4877927;29;20131;-77
2022/02/27 06:15:15;;;;;;;1.20;0.80;;;;;;;2.21;49.85;101472.75;4864860;29;20043;-80
2022/02/27 06:17:44;;;;;;;1.23;0.80;;;;;;;2.08;49.07;101420.75;4892742;29;20084;-81
2022/02/27 06:20:14;;;;;;;5.75;1.08;;;;;;;2.55;49.56;101479.63;4872949;29;20040;-81
2022/02/27 06:22:47;;;;;;;3.70;1.10;;;;;;;2.24;48.47;101383.88;4894374;29;20076;-83
2022/02/27 06:25:16;;;;;;;2.30;1.15;;;;;;;2.97;48.46;101459.44;4864452;29;20072;-82
2022/02/27 06:27:43;;;;;;;4.88;1.30;;;;;;;3.37;48.08;101490.47;4895173;29;20044;-80
2022/02/27 06:30:11;;;;;;;2.75;1.17;;;;;;;3.71;47.89;101494.59;4893799;29;20095;-79
2022/02/27 06:32:39;;;;;;;2.00;1.20;;;;;;;4.46;47.11;101491.94;4893403;29;20143;-81
2022/02/27 06:35:15;;;;;;;3.28;1.00;;;;;;;5.37;47.10;101493.91;4902085;29;20096;-82
2022/02/27 06:37:47;;;;;;;2.65;1.27;;;;;;;5.93;45.57;101416.81;4892652;29;20048;-79
2022/02/27 06:40:18;;;;;;;3.53;1.10;;;;;;;6.98;44.72;101470.34;4869482;29;20228;-79
2022/02/27 06:42:47;;;;;;;3.92;1.20;;;;;;;8.07;43.56;101461.56;4869290;29;20384;-79
2022/02/27 06:45:26;;;;;;;1.60;1.20;;;;;;;10.16;42.35;101494.19;4899258;29;20060;-79
2022/02/27 06:48:02;;;;;;;3.17;1.58;;;;;;;12.54;40.36;101451.69;4890697;29;20104;-78
2022/02/27 06:51:12;;;;;;;;;;;;;;;;;;;;;
2022/02/27 06:57:35;;;;;;;3.00;1.80;;;;;;;18.09;31.69;101436.53;4860607;29;20065;-77
2022/02/27 07:00:06;;;;;;;3.05;1.63;;;;;;;18.49;30.71;101488.63;4864734;29;20098;-78
2022/02/27 07:02:32;;;;;;;1.48;1.30;;;;;;;19.60;29.13;101488.53;4895715;29;20180;-79
2022/02/27 07:04:58;;;;;;;3.03;1.45;;;;;;;20.80;28.09;101491.25;4866328;29;20033;-79
2022/02/27 07:07:24;;;;;;;2.35;1.50;;;;;;;21.87;27.54;101489.25;4888206;29;20507;-79
2022/02/27 07:09:50;;;;;;;2.13;1.48;;;;;;;23.00;24.81;101475.09;4872434;29;20096;-77
2022/02/27 07:12:16;;;;;;;2.42;1.48;;;;;;;24.35;24.25;101493.22;4856313;29;20097;-80
2022/02/27 07:14:42;;;;;;;5.03;1.60;;;;;;;24.59;22.73;101480.72;4888949;29;20107;-78
2022/02/27 07:17:10;;;;;;;1.90;1.50;;;;;;;24.58;21.91;101457.72;4897705;29;20049;-79
2022/02/27 07:19:39;;;;;;;2.83;1.70;;;;;;;25.32;21.98;101495.41;4858951;29;20081;-79
2022/02/27 07:22:06;;;;;;;5.25;1.70;;;;;;;26.42;21.11;101485.94;4855415;29;20064;-78
2022/02/27 07:25:04;;;;;;;4.43;1.83;;;;;;;27.32;19.47;101477.91;4853693;29;20141;-78
2022/02/27 07:28:14;;;;;;;4.38;2.10;;;;;;;28.05;18.20;101500.72;4827090;29;20053;-81
2022/02/27 07:35:34;;;;;;;;;;;;;;;;;;;;;
2022/02/27 07:51:55;;;;;;;;;;;;;;;;;;;;;
2022/02/27 08:07:19;;;;;;;3.92;2.45;;;;;;;31.92;14.40;101436.72;5042450;23;20111;-78
2022/02/27 08:09:56;;;;;;;5.72;2.72;;;;;;;31.10;14.58;101505.19;4891437;29;20138;-80
2022/02/27 08:12:34;;;;;;;3.67;2.50;;;;;;;28.53;13.93;101465.91;4901943;29;20420;-79
2022/02/27 08:15:12;;;;;;;6.30;2.58;;;;;;;28.63;14.56;101509.06;4892726;29;20052;-80
2022/02/27 08:17:41;;;;;;;2.97;2.65;;;;;;;29.26;14.02;101496.41;4903802;29;20146;-78
2022/02/27 08:20:13;;;;;;;5.75;2.30;;;;;;;29.51;14.06;101511.00;4901096;29;20040;-79
2022/02/27 08:22:40;;;;;;;4.68;2.30;;;;;;;27.50;14.25;101439.50;4938712;29;20044;-80
2022/02/27 08:25:59;;;;;;;4.97;2.45;;;;;;;25.18;15.15;101496.03;4883007;29;20120;-76
2022/02/27 08:28:52;;;;;;;4.38;2.75;;;;;;;22.02;16.57;101452.59;4901520;29;20048;-77
2022/02/27 08:31:33;;;;;;;4.15;2.42;;;;;;;20.08;17.43;101455.84;4904906;29;20477;-78
2022/02/27 08:34:05;;;;;;;2.50;1.73;;;;;;;17.90;18.27;101428.88;4894619;29;20040;-77
2022/02/27 08:36:58;;;;;;;1.60;1.10;;;;;;;16.77;19.24;101524.72;4925895;29;20071;-78
2022/02/27 08:39:26;;;;;;;3.33;1.38;;;;;;;15.35;20.21;101511.28;4932804;29;20048;-78
2022/02/27 08:41:53;;;;;;;4.50;2.83;;;;;;;13.73;21.49;101447.28;4946015;29;20047;-79
2022/02/27 08:44:25;;;;;;;3.67;1.27;;;;;;;12.42;22.20;101390.66;4883911;29;20094;-79
2022/02/27 08:47:26;;;;;;;3.45;1.70;;;;;;;12.38;22.90;101548.09;4909956;29;20553;-81
2022/02/27 08:49:52;;;;;;;2.92;1.40;;;;;;;12.10;23.37;101545.19;4886141;29;20044;-80
2022/02/27 08:52:44;;;;;;;5.22;1.90;;;;;;;11.00;23.93;101427.19;4866769;29;20048;-82
2022/02/27 08:55:15;;;;;;;;;;;;;;;11.39;23.95;101552.81;4863183;29;20055;-80
2022/02/27 08:57:46;;;;;;;4.97;2.50;;;;;;;10.59;24.28;101427.41;4884996;29;20782;-82
2022/02/27 09:00:19;;;;;;;2.08;1.17;;;;;;;11.04;24.78;101500.16;4903757;29;20091;-81
2022/02/27 09:02:47;;;;;;;2.38;1.10;;;;;;;10.64;25.15;101427.47;4881517;29;20048;-80
2022/02/27 09:06:02;;;;;;;2.53;1.20;;;;;;;11.60;24.73;101531.44;4910620;29;20139;-82
2022/02/27 09:08:42;;;;;;;2.35;1.40;;;;;;;11.29;24.71;101477.97;4902207;29;20115;-79
2022/02/27 09:11:20;;;;;;;6.32;3.80;;;;;;;11.62;24.88;101476.69;4917704;29;20043;-79
2022/02/27 09:13:47;;;;;;;3.30;1.70;;;;;;;12.16;24.99;101552.19;4900573;29;20048;-79
2022/02/27 09:16:13;;;;;;;2.42;1.58;;;;;;;11.75;24.99;101524.66;4919391;29;20055;-79
2022/02/27 09:18:42;;;;;;;3.72;1.30;;;;;;;11.55;25.52;101551.34;4882946;29;20036;-79
2022/02/27 09:21:08;;;;;;;3.13;1.52;;;;;;;11.68;25.47;101544.56;4917366;29;20052;-78
2022/02/27 09:23:37;;;;;;;4.40;1.80;;;;;;;11.88;25.75;101508.34;4901422;29;20581;-80
2022/02/27 09:26:04;;;;;;;2.28;1.42;;;;;;;12.22;25.59;101514.84;4905649;29;20583;-78
2022/02/27 09:28:32;;;;;;;3.35;1.80;;;;;;;11.91;25.21;101437.06;4918112;29;20052;-80
2022/02/27 09:31:03;;;;;;;3.50;2.13;;;;;;;11.80;25.40;101489.09;4905456;29;20048;-80
2022/02/27 09:33:32;;;;;;;3.30;1.50;;;;;;;11.19;25.63;101455.22;4888201;29;20044;-80
2022/02/27 09:35:58;;;;;;;2.72;1.50;;;;;;;11.38;25.69;101538.03;4923677;29;20134;-80
2022/02/27 09:38:24;;;;;;;1.88;1.33;;;;;;;10.85;25.97;101508.56;4921220;29;20082;-82
2022/02/27 09:40:54;;;;;;;3.92;2.20;;;;;;;10.92;26.51;101568.56;4922976;29;20131;-80
2022/02/27 09:43:20;;;;;;;5.43;1.77;;;;;;;10.79;26.39;101560.50;4919585;29;20044;-79
2022/02/27 09:45:47;;;;;;;2.95;1.65;;;;;;;10.50;26.65;101557.38;4921314;29;20461;-78
2022/02/27 09:48:14;;;;;;;11.25;1.70;;;;;;;10.34;26.98;101582.16;4886715;29;20528;-79
2022/02/27 09:50:41;;;;;;;3.85;1.85;;;;;;;10.10;27.00;101560.00;4923264;29;20062;-79
2022/02/27 09:53:09;;;;;;;3.78;1.58;;;;;;;9.88;27.60;101567.34;4903074;29;20044;-79
2022/02/27 09:55:52;;;;;;;1.70;1.27;;;;;;;9.71;28.04;101571.28;4902910;29;20051;-81
2022/02/27 09:58:45;;;;;;;7.60;2.20;;;;;;;10.12;27.86;101571.31;4919954;29;20104;-80
2022/02/27 10:01:14;;;;;;;5.00;2.63;;;;;;;10.77;27.22;101577.84;4916195;29;20052;-79
2022/02/27 10:03:51;;;;;;;4.82;2.33;;;;;;;10.59;27.23;101554.06;4885106;29;20044;-78
2022/02/27 10:06:18;;;;;;;4.80;2.25;;;;;;;10.28;27.76;101488.38;4900389;29;20064;-79
2022/02/27 10:08:56;;;;;;;2.78;1.92;;;;;;;10.76;27.86;101586.50;4903328;29;20099;-79
2022/02/27 10:11:35;;;;;;;2.10;1.40;;;;;;;10.61;27.21;101578.41;4918386;29;20572;-78
2022/02/27 10:14:04;;;;;;;2.03;1.38;;;;;;;11.54;28.01;101491.38;4919755;29;20044;-79
2022/02/27 10:16:35;;;;;;;2.50;1.20;;;;;;;12.56;26.69;101568.34;4917543;29;20213;-78
2022/02/27 10:19:01;;;;;;;2.63;1.45;;;;;;;12.43;26.64;101566.44;4901452;29;20130;-81
2022/02/27 10:21:37;;;;;;;7.30;2.97;;;;;;;12.45;26.65;101565.59;4920718;29;20425;-78
2022/02/27 10:24:13;;;;;;;3.40;1.75;;;;;;;12.28;26.40;101581.06;4905017;29;20090;-79
2022/02/27 10:26:42;;;;;;;3.30;2.13;;;;;;;11.83;26.50;101574.31;4922019;29;20060;-78
2022/02/27 10:29:22;;;;;;;2.33;1.42;;;;;;;11.32;26.61;101568.34;4921461;29;20056;-80
2022/02/27 10:31:57;;;;;;;3.22;1.70;;;;;;;11.06;27.34;101572.28;4920447;29;20044;-78
2022/02/27 10:34:26;;;;;;;3.67;2.22;;;;;;;10.85;27.40;101560.63;4901572;29;20040;-78
2022/02/27 10:37:25;;;;;;;2.92;1.75;;;;;;;10.49;27.08;101581.63;4887393;29;20811;-79
2022/02/27 10:39:52;;;;;;;3.00;2.20;;;;;;;10.05;27.76;101549.50;4875104;29;20024;-78
2022/02/27 10:42:34;;;;;;;3.10;2.13;;;;;;;9.80;28.00;101582.75;4908420;29;20052;-78
2022/02/27 10:45:06;;;;;;;4.05;2.28;;;;;;;9.57;28.61;101590.03;4896393;29;20035;-79
2022/02/27 10:47:38;;;;;;;2.75;1.88;;;;;;;9.43;28.65;101586.22;4887692;29;20082;-78
2022/02/27 10:50:16;;;;;;;3.75;2.55;;;;;;;9.14;28.60;101576.00;4922871;29;20082;-78
2022/02/27 10:52:44;;;;;;;4.38;2.10;;;;;;;8.76;28.83;101575.84;4915656;29;20047;-79
2022/02/27 10:55:11;;;;;;;6.22;2.85;;;;;;;8.42;29.16;101562.78;4903846;29;20572;-81
2022/02/27 10:57:44;;;;;;;2.88;2.05;;;;;;;8.24;29.33;101595.16;4903735;29;20174;-80
2022/02/27 11:00:23;;;;;;;3.83;2.20;;;;;;;7.74;30.02;101599.66;4902838;29;20080;-78
2022/02/27 11:03:03;;;;;;;3.47;1.95;;;;;;;7.56;30.47;101597.41;4909507;29;20139;-80
2022/02/27 11:05:34;;;;;;;3.13;2.08;;;;;;;7.32;30.77;101590.59;4910683;29;20058;-78
2022/02/27 11:08:05;;;;;;;4.18;2.15;;;;;;;6.93;30.17;101585.00;4909835;29;20167;-79
2022/02/27 11:10:35;;;;;;;3.83;2.10;;;;;;;6.70;30.84;101568.66;4880045;29;20048;-80
2022/02/27 11:13:10;;;;;;;3.65;2.35;;;;;;;6.61;31.25;101570.94;4904028;29;20063;-78
2022/02/27 11:15:37;;;;;;;6.80;2.83;;;;;;;6.61;31.38;101591.63;4895985;29;20088;-81
2022/02/27 11:18:05;;;;;;;4.90;2.67;;;;;;;6.54;31.68;101599.97;4885118;29;20068;-80
2022/02/27 11:20:32;;;;;;;6.05;2.80;;;;;;;6.43;31.81;101602.16;4924875;29;20055;-78
2022/02/27 11:23:01;;;;;;;4.80;2.38;;;;;;;6.06;32.43;101570.63;4925059;29;20052;-79
2022/02/27 11:25:31;;;;;;;4.40;2.22;;;;;;;5.92;32.46;101564.91;4904011;29;20495;-78
2022/02/27 11:28:04;;;;;;;3.42;2.17;;;;;;;5.89;32.79;101606.13;4901557;29;20113;-82
2022/02/27 11:30:36;;;;;;;8.07;3.85;;;;;;;5.32;33.93;101521.22;4896924;29;20160;-81
2022/02/27 11:33:13;;;;;;;3.88;2.25;;;;;;;5.54;33.77;101564.28;4897980;29;20042;-80
2022/02/27 11:35:44;;;;;;;3.90;2.38;;;;;;;5.69;33.37;101592.44;4934765;29;20047;-78
2022/02/27 11:38:16;;;;;;;7.40;2.25;;;;;;;5.33;33.32;101544.53;4888228;29;20048;-79
2022/02/27 11:40:48;;;;;;;8.30;2.53;;;;;;;5.22;33.81;101548.38;4922012;29;20051;-80
2022/02/27 11:43:20;;;;;;;;;;;;;;;5.39;33.80;101592.97;4923375;29;20067;-78
2022/02/27 11:45:57;;;;;;;3.35;2.17;;;;;;;5.06;34.19;101583.88;4928338;29;19968;-80
2022/02/27 11:49:00;;;;;;;6.97;3.03;;;;;;;4.86;34.18;101588.16;4928902;29;20123;-81
2022/02/27 11:51:39;;;;;;;9.45;3.65;;;;;;;4.75;34.35;101599.75;4934521;29;20048;-79
2022/02/27 11:54:17;;;;;;;4.70;2.50;;;;;;;4.64;35.43;101600.13;4939367;29;20043;-82
2022/02/27 11:56:58;;;;;;;5.05;1.85;;;;;;;4.65;34.82;101598.44;4908831;29;20043;-82
2022/02/27 12:00:02;;;;;;;3.53;1.77;;;;;;;3.93;35.14;101517.09;4938600;29;20060;-82
2022/02/27 12:02:48;;;;;;;4.70;2.00;;;;;;;4.38;34.78;101598.97;4922001;29;20454;-82
2022/02/27 12:05:20;;;;;;;3.55;1.90;;;;;;;4.17;35.45;101581.72;4908196;29;20040;-79
2022/02/27 12:08:15;;;;;;;3.85;1.80;;;;;;;4.19;35.70;101618.75;4921384;29;20052;-81
2022/02/27 12:11:53;;;;;;;;;;;;;;;;;;;;;
2022/02/27 12:14:51;;;;;;;3.97;2.30;;;;;;;4.05;35.70;101615.53;4905299;29;20075;-81
2022/02/27 12:17:51;;;;;;;3.65;1.90;;;;;;;3.95;35.45;101622.75;4879244;29;20040;-81
2022/02/27 12:20:48;;;;;;;4.22;2.28;;;;;;;3.84;36.12;101609.38;4911826;29;20143;-78
2022/02/27 12:23:38;;;;;;;3.33;1.90;;;;;;;3.52;36.22;101612.16;4909499;29;20431;-79
2022/02/27 12:26:08;;;;;;;3.35;1.90;;;;;;;3.45;36.64;101594.63;4927108;29;20447;-81
2022/02/27 12:28:59;;;;;;;4.57;2.10;;;;;;;3.47;36.40;101614.53;4914117;29;20035;-80